sensor_id;sensor_type;location;lat;lon;timestamp;P1;durP1;ratioP1;P2;durP2;ratioP2
2011;SDS011;1009;51.436;6.972;2023-06-22T00:00:10;8.03;;;4.10;;
2011;SDS011;1009;51.436;6.972;2023-06-22T00:02:37;7.40;;;3.83;;
2011;SDS011;1009;51.436;6.972;2023-06-22T00:05:08;5.60;;;4.27;;
2011;SDS011;1009;51.436;6.972;2023-06-22T00:07:34;8.30;;;4.40;;
2011;SDS011;1009;51.436;6.972;2023-06-22T00:10:01;7.70;;;4.23;;
2011;SDS011;1009;51.436;6.972;2023-06-22T00:12:33;4.60;;;4.20;;
2011;SDS011;1009;51.436;6.972;2023-06-22T00:15:00;4.10;;;3.47;;
2011;SDS011;1009;51.436;6.972;2023-06-22T00:17:27;4.73;;;3.80;;
2011;SDS011;1009;51.436;6.972;2023-06-22T00:19:53;5.90;;;4.80;;
2011;SDS011;1009;51.436;6.972;2023-06-22T00:22:23;6.10;;;4.33;;
2011;SDS011;1009;51.436;6.972;2023-06-22T00:24:53;8.50;;;4.40;;
2011;SDS011;1009;51.436;6.972;2023-06-22T00:27:20;5.23;;;3.90;;
2011;SDS011;1009;51.436;6.972;2023-06-22T00:29:50;5.70;;;4.30;;
2011;SDS011;1009;51.436;6.972;2023-06-22T00:32:16;5.63;;;4.40;;
2011;SDS011;1009;51.436;6.972;2023-06-22T00:34:43;6.73;;;3.63;;
2011;SDS011;1009;51.436;6.972;2023-06-22T00:37:10;5.07;;;4.37;;
2011;SDS011;1009;51.436;6.972;2023-06-22T00:39:38;9.03;;;4.10;;
2011;SDS011;1009;51.436;6.972;2023-06-22T00:42:05;4.77;;;3.70;;
2011;SDS011;1009;51.436;6.972;2023-06-22T00:44:32;5.00;;;3.83;;
2011;SDS011;1009;51.436;6.972;2023-06-22T00:46:59;8.97;;;5.83;;
2011;SDS011;1009;51.436;6.972;2023-06-22T00:49:26;8.43;;;4.93;;
2011;SDS011;1009;51.436;6.972;2023-06-22T00:51:53;5.40;;;4.03;;
2011;SDS011;1009;51.436;6.972;2023-06-22T00:54:19;9.10;;;4.37;;
2011;SDS011;1009;51.436;6.972;2023-06-22T00:56:51;7.27;;;5.03;;
2011;SDS011;1009;51.436;6.972;2023-06-22T00:59:21;6.23;;;5.10;;
2011;SDS011;1009;51.436;6.972;2023-06-22T01:01:48;5.97;;;4.67;;
2011;SDS011;1009;51.436;6.972;2023-06-22T01:04:15;6.97;;;4.33;;
2011;SDS011;1009;51.436;6.972;2023-06-22T01:06:44;10.83;;;5.10;;
2011;SDS011;1009;51.436;6.972;2023-06-22T01:09:19;6.93;;;4.53;;
2011;SDS011;1009;51.436;6.972;2023-06-22T01:11:54;7.90;;;4.27;;
2011;SDS011;1009;51.436;6.972;2023-06-22T01:14:28;4.70;;;3.60;;
2011;SDS011;1009;51.436;6.972;2023-06-22T01:17:03;4.57;;;4.00;;
2011;SDS011;1009;51.436;6.972;2023-06-22T01:19:35;5.17;;;3.63;;
2011;SDS011;1009;51.436;6.972;2023-06-22T01:22:07;5.03;;;3.90;;
2011;SDS011;1009;51.436;6.972;2023-06-22T01:24:41;4.83;;;3.43;;
2011;SDS011;1009;51.436;6.972;2023-06-22T01:27:17;4.80;;;3.30;;
2011;SDS011;1009;51.436;6.972;2023-06-22T01:29:56;4.90;;;3.20;;
2011;SDS011;1009;51.436;6.972;2023-06-22T01:32:25;5.90;;;4.50;;
2011;SDS011;1009;51.436;6.972;2023-06-22T01:34:54;5.50;;;4.17;;
2011;SDS011;1009;51.436;6.972;2023-06-22T01:37:21;3.97;;;3.23;;
2011;SDS011;1009;51.436;6.972;2023-06-22T01:39:48;6.80;;;4.57;;
2011;SDS011;1009;51.436;6.972;2023-06-22T01:42:15;5.83;;;4.30;;
2011;SDS011;1009;51.436;6.972;2023-06-22T01:44:42;7.77;;;3.90;;
2011;SDS011;1009;51.436;6.972;2023-06-22T01:47:11;6.70;;;4.73;;
2011;SDS011;1009;51.436;6.972;2023-06-22T01:49:39;5.73;;;4.20;;
2011;SDS011;1009;51.436;6.972;2023-06-22T01:52:12;5.83;;;4.27;;
2011;SDS011;1009;51.436;6.972;2023-06-22T01:54:39;5.00;;;3.80;;
2011;SDS011;1009;51.436;6.972;2023-06-22T01:57:11;6.97;;;5.00;;
2011;SDS011;1009;51.436;6.972;2023-06-22T01:59:39;3.60;;;3.03;;
2011;SDS011;1009;51.436;6.972;2023-06-22T02:02:16;3.60;;;2.87;;
2011;SDS011;1009;51.436;6.972;2023-06-22T02:04:52;4.93;;;4.10;;
2011;SDS011;1009;51.436;6.972;2023-06-22T02:07:23;8.53;;;4.60;;
2011;SDS011;1009;51.436;6.972;2023-06-22T02:09:54;7.93;;;5.40;;
2011;SDS011;1009;51.436;6.972;2023-06-22T02:12:23;7.37;;;5.90;;
2011;SDS011;1009;51.436;6.972;2023-06-22T02:14:53;9.50;;;8.10;;
2011;SDS011;1009;51.436;6.972;2023-06-22T02:17:22;10.50;;;7.23;;
2011;SDS011;1009;51.436;6.972;2023-06-22T02:19:56;11.00;;;8.23;;
2011;SDS011;1009;51.436;6.972;2023-06-22T02:22:23;10.73;;;8.13;;
2011;SDS011;1009;51.436;6.972;2023-06-22T02:24:49;10.67;;;8.57;;
2011;SDS011;1009;51.436;6.972;2023-06-22T02:27:16;10.50;;;8.20;;
2011;SDS011;1009;51.436;6.972;2023-06-22T02:29:46;8.00;;;5.57;;
2011;SDS011;1009;51.436;6.972;2023-06-22T02:32:18;7.20;;;6.00;;
2011;SDS011;1009;51.436;6.972;2023-06-22T02:34:46;9.03;;;5.40;;
2011;SDS011;1009;51.436;6.972;2023-06-22T02:37:13;9.50;;;6.50;;
2011;SDS011;1009;51.436;6.972;2023-06-22T02:39:43;11.83;;;6.70;;
2011;SDS011;1009;51.436;6.972;2023-06-22T02:42:10;9.47;;;7.70;;
2011;SDS011;1009;51.436;6.972;2023-06-22T02:44:36;11.40;;;7.30;;
2011;SDS011;1009;51.436;6.972;2023-06-22T02:47:03;12.33;;;7.50;;
2011;SDS011;1009;51.436;6.972;2023-06-22T02:49:30;12.20;;;7.33;;
2011;SDS011;1009;51.436;6.972;2023-06-22T02:51:58;9.23;;;6.90;;
2011;SDS011;1009;51.436;6.972;2023-06-22T02:54:26;12.00;;;9.07;;
2011;SDS011;1009;51.436;6.972;2023-06-22T02:56:53;9.03;;;7.73;;
2011;SDS011;1009;51.436;6.972;2023-06-22T02:59:20;11.83;;;8.33;;
2011;SDS011;1009;51.436;6.972;2023-06-22T03:01:48;10.60;;;7.30;;
2011;SDS011;1009;51.436;6.972;2023-06-22T03:04:15;9.97;;;8.30;;
2011;SDS011;1009;51.436;6.972;2023-06-22T03:06:42;10.03;;;8.20;;
2011;SDS011;1009;51.436;6.972;2023-06-22T03:09:10;9.13;;;6.50;;
2011;SDS011;1009;51.436;6.972;2023-06-22T03:11:37;7.20;;;6.50;;
2011;SDS011;1009;51.436;6.972;2023-06-22T03:14:03;11.53;;;8.90;;
2011;SDS011;1009;51.436;6.972;2023-06-22T03:16:30;10.57;;;8.87;;
2011;SDS011;1009;51.436;6.972;2023-06-22T03:18:58;12.00;;;9.27;;
2011;SDS011;1009;51.436;6.972;2023-06-22T03:21:26;10.97;;;9.00;;
2011;SDS011;1009;51.436;6.972;2023-06-22T03:23:54;13.80;;;9.03;;
2011;SDS011;1009;51.436;6.972;2023-06-22T03:26:22;9.83;;;8.83;;
2011;SDS011;1009;51.436;6.972;2023-06-22T03:28:51;14.63;;;10.70;;
2011;SDS011;1009;51.436;6.972;2023-06-22T03:31:18;12.57;;;9.77;;
2011;SDS011;1009;51.436;6.972;2023-06-22T03:33:46;12.73;;;9.87;;
2011;SDS011;1009;51.436;6.972;2023-06-22T03:36:13;13.13;;;11.07;;
2011;SDS011;1009;51.436;6.972;2023-06-22T03:38:41;12.57;;;9.80;;
2011;SDS011;1009;51.436;6.972;2023-06-22T03:41:08;11.37;;;9.53;;
2011;SDS011;1009;51.436;6.972;2023-06-22T03:43:36;10.73;;;8.90;;
2011;SDS011;1009;51.436;6.972;2023-06-22T03:46:02;12.53;;;10.77;;
2011;SDS011;1009;51.436;6.972;2023-06-22T03:48:29;12.80;;;10.53;;
2011;SDS011;1009;51.436;6.972;2023-06-22T03:50:56;15.20;;;10.47;;
2011;SDS011;1009;51.436;6.972;2023-06-22T03:53:22;13.43;;;9.87;;
2011;SDS011;1009;51.436;6.972;2023-06-22T03:55:49;14.60;;;9.93;;
2011;SDS011;1009;51.436;6.972;2023-06-22T03:58:17;14.50;;;10.40;;
2011;SDS011;1009;51.436;6.972;2023-06-22T04:00:46;11.43;;;8.90;;
2011;SDS011;1009;51.436;6.972;2023-06-22T04:03:12;15.43;;;9.90;;
2011;SDS011;1009;51.436;6.972;2023-06-22T04:05:39;11.50;;;9.20;;
2011;SDS011;1009;51.436;6.972;2023-06-22T04:08:06;14.13;;;10.53;;
2011;SDS011;1009;51.436;6.972;2023-06-22T04:10:33;16.57;;;8.93;;
2011;SDS011;1009;51.436;6.972;2023-06-22T04:13:00;11.00;;;9.67;;
2011;SDS011;1009;51.436;6.972;2023-06-22T04:15:30;15.10;;;8.80;;
2011;SDS011;1009;51.436;6.972;2023-06-22T04:17:58;12.37;;;8.83;;
2011;SDS011;1009;51.436;6.972;2023-06-22T04:20:25;9.90;;;8.63;;
2011;SDS011;1009;51.436;6.972;2023-06-22T04:22:52;11.70;;;8.50;;
2011;SDS011;1009;51.436;6.972;2023-06-22T04:25:19;11.03;;;9.30;;
2011;SDS011;1009;51.436;6.972;2023-06-22T04:27:45;14.67;;;10.27;;
2011;SDS011;1009;51.436;6.972;2023-06-22T04:30:12;13.07;;;8.40;;
2011;SDS011;1009;51.436;6.972;2023-06-22T04:32:40;16.13;;;11.10;;
2011;SDS011;1009;51.436;6.972;2023-06-22T04:35:08;12.33;;;8.60;;
2011;SDS011;1009;51.436;6.972;2023-06-22T04:37:35;11.37;;;9.50;;
2011;SDS011;1009;51.436;6.972;2023-06-22T04:40:03;10.77;;;9.67;;
2011;SDS011;1009;51.436;6.972;2023-06-22T04:42:30;15.20;;;10.67;;
2011;SDS011;1009;51.436;6.972;2023-06-22T04:44:58;12.90;;;10.63;;
2011;SDS011;1009;51.436;6.972;2023-06-22T04:47:24;13.17;;;11.63;;
2011;SDS011;1009;51.436;6.972;2023-06-22T04:49:51;14.57;;;10.17;;
2011;SDS011;1009;51.436;6.972;2023-06-22T04:52:19;14.53;;;10.77;;
2011;SDS011;1009;51.436;6.972;2023-06-22T04:54:46;17.57;;;9.43;;
2011;SDS011;1009;51.436;6.972;2023-06-22T04:57:15;13.27;;;9.53;;
2011;SDS011;1009;51.436;6.972;2023-06-22T04:59:42;10.70;;;8.83;;
2011;SDS011;1009;51.436;6.972;2023-06-22T05:02:18;14.63;;;10.80;;
2011;SDS011;1009;51.436;6.972;2023-06-22T05:04:45;14.07;;;11.60;;
2011;SDS011;1009;51.436;6.972;2023-06-22T05:07:16;13.50;;;10.77;;
2011;SDS011;1009;51.436;6.972;2023-06-22T05:09:44;15.50;;;10.67;;
2011;SDS011;1009;51.436;6.972;2023-06-22T05:12:10;15.60;;;10.70;;
2011;SDS011;1009;51.436;6.972;2023-06-22T05:14:37;13.80;;;11.83;;
2011;SDS011;1009;51.436;6.972;2023-06-22T05:17:04;14.07;;;9.73;;
2011;SDS011;1009;51.436;6.972;2023-06-22T05:19:38;15.00;;;10.87;;
2011;SDS011;1009;51.436;6.972;2023-06-22T05:22:10;12.00;;;9.93;;
2011;SDS011;1009;51.436;6.972;2023-06-22T05:24:37;14.60;;;10.33;;
2011;SDS011;1009;51.436;6.972;2023-06-22T05:27:06;15.43;;;11.20;;
2011;SDS011;1009;51.436;6.972;2023-06-22T05:29:33;14.47;;;10.70;;
2011;SDS011;1009;51.436;6.972;2023-06-22T05:32:00;19.70;;;12.50;;
2011;SDS011;1009;51.436;6.972;2023-06-22T05:34:27;15.30;;;11.87;;
2011;SDS011;1009;51.436;6.972;2023-06-22T05:36:54;16.70;;;12.33;;
2011;SDS011;1009;51.436;6.972;2023-06-22T05:39:24;15.83;;;12.80;;
2011;SDS011;1009;51.436;6.972;2023-06-22T05:41:51;19.03;;;13.53;;
2011;SDS011;1009;51.436;6.972;2023-06-22T05:44:19;18.40;;;13.47;;
2011;SDS011;1009;51.436;6.972;2023-06-22T05:46:46;14.23;;;11.60;;
2011;SDS011;1009;51.436;6.972;2023-06-22T05:49:13;16.50;;;14.07;;
2011;SDS011;1009;51.436;6.972;2023-06-22T05:51:41;15.30;;;13.40;;
2011;SDS011;1009;51.436;6.972;2023-06-22T05:54:08;16.40;;;13.67;;
2011;SDS011;1009;51.436;6.972;2023-06-22T05:56:35;17.20;;;13.70;;
2011;SDS011;1009;51.436;6.972;2023-06-22T05:59:01;18.13;;;12.40;;
2011;SDS011;1009;51.436;6.972;2023-06-22T06:01:29;17.27;;;12.27;;
2011;SDS011;1009;51.436;6.972;2023-06-22T06:04:01;16.00;;;13.67;;
2011;SDS011;1009;51.436;6.972;2023-06-22T06:06:28;14.90;;;11.47;;
2011;SDS011;1009;51.436;6.972;2023-06-22T06:08:55;17.03;;;13.47;;
2011;SDS011;1009;51.436;6.972;2023-06-22T06:11:22;19.83;;;13.80;;
2011;SDS011;1009;51.436;6.972;2023-06-22T06:13:49;17.87;;;13.03;;
2011;SDS011;1009;51.436;6.972;2023-06-22T06:16:16;19.60;;;13.40;;
2011;SDS011;1009;51.436;6.972;2023-06-22T06:18:44;16.20;;;13.43;;
2011;SDS011;1009;51.436;6.972;2023-06-22T06:21:11;19.53;;;14.30;;
2011;SDS011;1009;51.436;6.972;2023-06-22T06:23:37;20.47;;;14.20;;
2011;SDS011;1009;51.436;6.972;2023-06-22T06:26:04;18.17;;;13.87;;
2011;SDS011;1009;51.436;6.972;2023-06-22T06:28:32;17.70;;;14.70;;
2011;SDS011;1009;51.436;6.972;2023-06-22T06:30:58;18.87;;;13.87;;
2011;SDS011;1009;51.436;6.972;2023-06-22T06:33:25;19.20;;;14.47;;
2011;SDS011;1009;51.436;6.972;2023-06-22T06:35:53;17.83;;;14.33;;
2011;SDS011;1009;51.436;6.972;2023-06-22T06:38:21;21.20;;;14.80;;
2011;SDS011;1009;51.436;6.972;2023-06-22T06:40:48;20.33;;;14.77;;
2011;SDS011;1009;51.436;6.972;2023-06-22T06:43:15;16.60;;;13.83;;
2011;SDS011;1009;51.436;6.972;2023-06-22T06:45:41;20.87;;;15.63;;
2011;SDS011;1009;51.436;6.972;2023-06-22T06:48:08;22.90;;;16.70;;
2011;SDS011;1009;51.436;6.972;2023-06-22T06:50:35;20.63;;;13.90;;
2011;SDS011;1009;51.436;6.972;2023-06-22T06:53:03;19.53;;;15.17;;
2011;SDS011;1009;51.436;6.972;2023-06-22T06:55:30;21.37;;;14.90;;
2011;SDS011;1009;51.436;6.972;2023-06-22T06:57:57;21.07;;;15.57;;
2011;SDS011;1009;51.436;6.972;2023-06-22T07:00:29;22.67;;;14.93;;
2011;SDS011;1009;51.436;6.972;2023-06-22T07:03:08;20.43;;;14.30;;
2011;SDS011;1009;51.436;6.972;2023-06-22T07:05:38;26.60;;;16.00;;
2011;SDS011;1009;51.436;6.972;2023-06-22T07:08:06;20.73;;;14.90;;
2011;SDS011;1009;51.436;6.972;2023-06-22T07:10:32;17.00;;;14.63;;
2011;SDS011;1009;51.436;6.972;2023-06-22T07:12:59;18.43;;;15.40;;
2011;SDS011;1009;51.436;6.972;2023-06-22T07:15:26;21.90;;;16.23;;
2011;SDS011;1009;51.436;6.972;2023-06-22T07:17:53;17.37;;;14.30;;
2011;SDS011;1009;51.436;6.972;2023-06-22T07:20:20;23.33;;;15.53;;
2011;SDS011;1009;51.436;6.972;2023-06-22T07:22:47;21.93;;;14.90;;
2011;SDS011;1009;51.436;6.972;2023-06-22T07:25:15;18.30;;;14.97;;
2011;SDS011;1009;51.436;6.972;2023-06-22T07:27:44;18.37;;;14.07;;
2011;SDS011;1009;51.436;6.972;2023-06-22T07:30:11;23.80;;;15.93;;
2011;SDS011;1009;51.436;6.972;2023-06-22T07:32:39;21.27;;;15.50;;
2011;SDS011;1009;51.436;6.972;2023-06-22T07:35:06;21.93;;;15.23;;
2011;SDS011;1009;51.436;6.972;2023-06-22T07:37:33;22.07;;;15.03;;
2011;SDS011;1009;51.436;6.972;2023-06-22T07:40:00;21.67;;;16.10;;
2011;SDS011;1009;51.436;6.972;2023-06-22T07:42:32;21.40;;;15.90;;
2011;SDS011;1009;51.436;6.972;2023-06-22T07:44:59;19.20;;;15.17;;
2011;SDS011;1009;51.436;6.972;2023-06-22T07:47:26;20.47;;;15.00;;
2011;SDS011;1009;51.436;6.972;2023-06-22T07:49:53;22.00;;;16.30;;
2011;SDS011;1009;51.436;6.972;2023-06-22T07:52:22;22.70;;;14.70;;
2011;SDS011;1009;51.436;6.972;2023-06-22T07:54:49;20.10;;;14.70;;
2011;SDS011;1009;51.436;6.972;2023-06-22T07:57:16;21.73;;;15.67;;
2011;SDS011;1009;51.436;6.972;2023-06-22T07:59:45;23.83;;;16.33;;
2011;SDS011;1009;51.436;6.972;2023-06-22T08:02:11;16.83;;;14.60;;
2011;SDS011;1009;51.436;6.972;2023-06-22T08:04:38;17.13;;;14.30;;
2011;SDS011;1009;51.436;6.972;2023-06-22T08:07:06;17.90;;;14.13;;
2011;SDS011;1009;51.436;6.972;2023-06-22T08:09:32;22.13;;;16.43;;
2011;SDS011;1009;51.436;6.972;2023-06-22T08:11:59;21.47;;;17.13;;
2011;SDS011;1009;51.436;6.972;2023-06-22T08:14:26;25.57;;;18.07;;
2011;SDS011;1009;51.436;6.972;2023-06-22T08:16:55;23.43;;;18.57;;
2011;SDS011;1009;51.436;6.972;2023-06-22T08:19:21;22.37;;;16.53;;
2011;SDS011;1009;51.436;6.972;2023-06-22T08:21:48;22.37;;;17.40;;
2011;SDS011;1009;51.436;6.972;2023-06-22T08:24:15;25.13;;;16.90;;
2011;SDS011;1009;51.436;6.972;2023-06-22T08:26:42;24.60;;;17.70;;
2011;SDS011;1009;51.436;6.972;2023-06-22T08:29:08;24.50;;;17.80;;
2011;SDS011;1009;51.436;6.972;2023-06-22T08:31:35;20.77;;;17.23;;
2011;SDS011;1009;51.436;6.972;2023-06-22T08:34:03;21.60;;;16.23;;
2011;SDS011;1009;51.436;6.972;2023-06-22T08:36:30;21.30;;;16.90;;
2011;SDS011;1009;51.436;6.972;2023-06-22T08:38:57;21.47;;;17.13;;
2011;SDS011;1009;51.436;6.972;2023-06-22T08:41:27;22.90;;;16.33;;
2011;SDS011;1009;51.436;6.972;2023-06-22T08:43:54;22.47;;;17.23;;
2011;SDS011;1009;51.436;6.972;2023-06-22T08:46:21;21.23;;;18.07;;
2011;SDS011;1009;51.436;6.972;2023-06-22T08:48:55;19.67;;;17.40;;
2011;SDS011;1009;51.436;6.972;2023-06-22T08:51:24;24.10;;;17.20;;
2011;SDS011;1009;51.436;6.972;2023-06-22T08:53:51;19.77;;;16.60;;
2011;SDS011;1009;51.436;6.972;2023-06-22T08:56:18;20.63;;;17.10;;
2011;SDS011;1009;51.436;6.972;2023-06-22T08:58:45;23.23;;;16.67;;
2011;SDS011;1009;51.436;6.972;2023-06-22T09:01:11;27.00;;;17.27;;
2011;SDS011;1009;51.436;6.972;2023-06-22T09:03:40;20.70;;;17.60;;
2011;SDS011;1009;51.436;6.972;2023-06-22T09:06:07;21.23;;;17.33;;
2011;SDS011;1009;51.436;6.972;2023-06-22T09:08:36;20.50;;;16.20;;
2011;SDS011;1009;51.436;6.972;2023-06-22T09:11:03;20.10;;;16.03;;
2011;SDS011;1009;51.436;6.972;2023-06-22T09:13:30;21.93;;;16.70;;
2011;SDS011;1009;51.436;6.972;2023-06-22T09:15:57;20.47;;;15.47;;
2011;SDS011;1009;51.436;6.972;2023-06-22T09:18:23;20.33;;;16.03;;
2011;SDS011;1009;51.436;6.972;2023-06-22T09:20:50;17.70;;;14.53;;
2011;SDS011;1009;51.436;6.972;2023-06-22T09:23:17;20.07;;;16.70;;
2011;SDS011;1009;51.436;6.972;2023-06-22T09:25:45;22.43;;;16.37;;
2011;SDS011;1009;51.436;6.972;2023-06-22T09:28:12;20.87;;;15.90;;
2011;SDS011;1009;51.436;6.972;2023-06-22T09:30:39;16.23;;;14.43;;
2011;SDS011;1009;51.436;6.972;2023-06-22T09:33:06;22.10;;;17.10;;
2011;SDS011;1009;51.436;6.972;2023-06-22T09:35:39;18.40;;;14.83;;
2011;SDS011;1009;51.436;6.972;2023-06-22T09:38:08;18.07;;;14.20;;
2011;SDS011;1009;51.436;6.972;2023-06-22T09:40:35;18.83;;;12.70;;
2011;SDS011;1009;51.436;6.972;2023-06-22T09:43:12;16.50;;;13.83;;
2011;SDS011;1009;51.436;6.972;2023-06-22T09:45:47;15.73;;;12.70;;
2011;SDS011;1009;51.436;6.972;2023-06-22T09:48:14;19.57;;;13.30;;
2011;SDS011;1009;51.436;6.972;2023-06-22T09:50:41;18.33;;;12.10;;
2011;SDS011;1009;51.436;6.972;2023-06-22T09:53:07;16.30;;;11.30;;
2011;SDS011;1009;51.436;6.972;2023-06-22T09:55:34;13.60;;;12.10;;
2011;SDS011;1009;51.436;6.972;2023-06-22T09:58:01;16.10;;;12.50;;
2011;SDS011;1009;51.436;6.972;2023-06-22T10:00:29;14.30;;;11.37;;
2011;SDS011;1009;51.436;6.972;2023-06-22T10:02:57;18.60;;;13.97;;
2011;SDS011;1009;51.436;6.972;2023-06-22T10:05:24;15.80;;;12.60;;
2011;SDS011;1009;51.436;6.972;2023-06-22T10:07:50;14.57;;;12.30;;
2011;SDS011;1009;51.436;6.972;2023-06-22T10:10:17;15.90;;;11.40;;
2011;SDS011;1009;51.436;6.972;2023-06-22T10:12:45;15.00;;;10.87;;
2011;SDS011;1009;51.436;6.972;2023-06-22T10:15:13;16.70;;;12.80;;
2011;SDS011;1009;51.436;6.972;2023-06-22T10:17:41;15.57;;;13.60;;
2011;SDS011;1009;51.436;6.972;2023-06-22T10:20:08;16.33;;;11.43;;
2011;SDS011;1009;51.436;6.972;2023-06-22T10:22:37;15.27;;;13.37;;
2011;SDS011;1009;51.436;6.972;2023-06-22T10:25:05;15.47;;;13.30;;
2011;SDS011;1009;51.436;6.972;2023-06-22T10:27:33;16.27;;;11.97;;
2011;SDS011;1009;51.436;6.972;2023-06-22T10:29:59;14.63;;;12.20;;
2011;SDS011;1009;51.436;6.972;2023-06-22T10:32:26;20.43;;;15.40;;
2011;SDS011;1009;51.436;6.972;2023-06-22T10:34:55;14.20;;;12.00;;
2011;SDS011;1009;51.436;6.972;2023-06-22T10:37:24;13.80;;;11.23;;
2011;SDS011;1009;51.436;6.972;2023-06-22T10:39:51;14.60;;;11.57;;
2011;SDS011;1009;51.436;6.972;2023-06-22T10:42:18;15.47;;;12.10;;
2011;SDS011;1009;51.436;6.972;2023-06-22T10:44:44;16.67;;;13.00;;
2011;SDS011;1009;51.436;6.972;2023-06-22T10:47:14;15.40;;;12.40;;
2011;SDS011;1009;51.436;6.972;2023-06-22T10:49:41;14.03;;;12.53;;
2011;SDS011;1009;51.436;6.972;2023-06-22T10:52:09;14.77;;;12.57;;
2011;SDS011;1009;51.436;6.972;2023-06-22T10:54:41;15.77;;;13.00;;
2011;SDS011;1009;51.436;6.972;2023-06-22T10:57:08;14.03;;;12.20;;
2011;SDS011;1009;51.436;6.972;2023-06-22T10:59:35;14.57;;;12.23;;
2011;SDS011;1009;51.436;6.972;2023-06-22T11:02:01;15.83;;;12.70;;
2011;SDS011;1009;51.436;6.972;2023-06-22T11:04:28;13.67;;;11.27;;
2011;SDS011;1009;51.436;6.972;2023-06-22T11:06:55;13.70;;;11.13;;
2011;SDS011;1009;51.436;6.972;2023-06-22T11:09:26;12.93;;;10.40;;
2011;SDS011;1009;51.436;6.972;2023-06-22T11:11:52;16.33;;;12.70;;
2011;SDS011;1009;51.436;6.972;2023-06-22T11:14:19;14.63;;;13.13;;
2011;SDS011;1009;51.436;6.972;2023-06-22T11:16:46;17.73;;;12.93;;
2011;SDS011;1009;51.436;6.972;2023-06-22T11:19:13;16.50;;;12.63;;
2011;SDS011;1009;51.436;6.972;2023-06-22T11:21:40;17.10;;;13.67;;
2011;SDS011;1009;51.436;6.972;2023-06-22T11:24:07;15.60;;;12.87;;
2011;SDS011;1009;51.436;6.972;2023-06-22T11:26:35;15.53;;;13.67;;
2011;SDS011;1009;51.436;6.972;2023-06-22T11:29:02;17.13;;;13.70;;
2011;SDS011;1009;51.436;6.972;2023-06-22T11:31:30;14.97;;;13.23;;
2011;SDS011;1009;51.436;6.972;2023-06-22T11:33:57;17.80;;;14.67;;
2011;SDS011;1009;51.436;6.972;2023-06-22T11:36:23;20.50;;;15.87;;
2011;SDS011;1009;51.436;6.972;2023-06-22T11:38:51;17.67;;;15.07;;
2011;SDS011;1009;51.436;6.972;2023-06-22T11:41:18;22.50;;;17.20;;
2011;SDS011;1009;51.436;6.972;2023-06-22T11:43:51;22.83;;;17.23;;
2011;SDS011;1009;51.436;6.972;2023-06-22T11:46:24;23.00;;;17.60;;
2011;SDS011;1009;51.436;6.972;2023-06-22T11:48:53;26.90;;;19.30;;
2011;SDS011;1009;51.436;6.972;2023-06-22T11:51:20;21.93;;;18.30;;
2011;SDS011;1009;51.436;6.972;2023-06-22T11:53:47;28.60;;;19.20;;
2011;SDS011;1009;51.436;6.972;2023-06-22T11:56:16;23.27;;;18.30;;
2011;SDS011;1009;51.436;6.972;2023-06-22T11:58:46;24.63;;;20.70;;
2011;SDS011;1009;51.436;6.972;2023-06-22T12:01:14;24.73;;;20.00;;
2011;SDS011;1009;51.436;6.972;2023-06-22T12:03:41;28.00;;;21.97;;
2011;SDS011;1009;51.436;6.972;2023-06-22T12:06:13;33.07;;;23.40;;
2011;SDS011;1009;51.436;6.972;2023-06-22T12:08:40;28.63;;;22.57;;
2011;SDS011;1009;51.436;6.972;2023-06-22T12:11:07;28.50;;;22.73;;
2011;SDS011;1009;51.436;6.972;2023-06-22T12:13:33;33.23;;;23.23;;
2011;SDS011;1009;51.436;6.972;2023-06-22T12:16:00;35.87;;;25.00;;
2011;SDS011;1009;51.436;6.972;2023-06-22T12:18:28;31.07;;;23.60;;
2011;SDS011;1009;51.436;6.972;2023-06-22T12:20:55;34.23;;;24.90;;
2011;SDS011;1009;51.436;6.972;2023-06-22T12:23:22;34.53;;;24.50;;
2011;SDS011;1009;51.436;6.972;2023-06-22T12:25:49;35.83;;;25.07;;
2011;SDS011;1009;51.436;6.972;2023-06-22T12:28:16;34.73;;;25.83;;
2011;SDS011;1009;51.436;6.972;2023-06-22T12:30:43;41.50;;;27.17;;
2011;SDS011;1009;51.436;6.972;2023-06-22T12:33:10;39.00;;;27.77;;
2011;SDS011;1009;51.436;6.972;2023-06-22T12:35:38;37.00;;;27.10;;
2011;SDS011;1009;51.436;6.972;2023-06-22T12:38:05;37.20;;;26.37;;
2011;SDS011;1009;51.436;6.972;2023-06-22T12:40:33;39.60;;;28.37;;
2011;SDS011;1009;51.436;6.972;2023-06-22T12:43:00;39.13;;;29.67;;
2011;SDS011;1009;51.436;6.972;2023-06-22T12:45:27;41.80;;;30.80;;
2011;SDS011;1009;51.436;6.972;2023-06-22T12:47:58;44.87;;;31.53;;
2011;SDS011;1009;51.436;6.972;2023-06-22T12:50:25;39.10;;;29.17;;
2011;SDS011;1009;51.436;6.972;2023-06-22T12:52:53;37.33;;;29.30;;
2011;SDS011;1009;51.436;6.972;2023-06-22T12:55:20;39.10;;;30.20;;
2011;SDS011;1009;51.436;6.972;2023-06-22T12:57:47;46.40;;;30.00;;
2011;SDS011;1009;51.436;6.972;2023-06-22T13:00:14;40.87;;;29.13;;
2011;SDS011;1009;51.436;6.972;2023-06-22T13:02:41;41.70;;;29.30;;
2011;SDS011;1009;51.436;6.972;2023-06-22T13:05:08;41.63;;;29.83;;
2011;SDS011;1009;51.436;6.972;2023-06-22T13:07:35;44.90;;;31.03;;
2011;SDS011;1009;51.436;6.972;2023-06-22T13:10:04;44.93;;;30.73;;
2011;SDS011;1009;51.436;6.972;2023-06-22T13:12:31;43.60;;;30.63;;
2011;SDS011;1009;51.436;6.972;2023-06-22T13:14:58;47.67;;;31.70;;
2011;SDS011;1009;51.436;6.972;2023-06-22T13:17:24;40.97;;;29.77;;
2011;SDS011;1009;51.436;6.972;2023-06-22T13:19:51;44.17;;;31.10;;
2011;SDS011;1009;51.436;6.972;2023-06-22T13:22:25;43.60;;;32.77;;
2011;SDS011;1009;51.436;6.972;2023-06-22T13:24:54;44.43;;;32.50;;
2011;SDS011;1009;51.436;6.972;2023-06-22T13:27:22;45.00;;;30.93;;
2011;SDS011;1009;51.436;6.972;2023-06-22T13:29:49;44.07;;;30.97;;
2011;SDS011;1009;51.436;6.972;2023-06-22T13:32:16;46.67;;;33.30;;
2011;SDS011;1009;51.436;6.972;2023-06-22T13:34:43;47.27;;;33.30;;
2011;SDS011;1009;51.436;6.972;2023-06-22T13:37:09;42.93;;;31.30;;
2011;SDS011;1009;51.436;6.972;2023-06-22T13:39:42;48.37;;;32.10;;
2011;SDS011;1009;51.436;6.972;2023-06-22T13:42:09;46.10;;;32.20;;
2011;SDS011;1009;51.436;6.972;2023-06-22T13:44:37;44.87;;;31.10;;
2011;SDS011;1009;51.436;6.972;2023-06-22T13:47:04;46.17;;;31.83;;
2011;SDS011;1009;51.436;6.972;2023-06-22T13:49:31;46.67;;;31.07;;
2011;SDS011;1009;51.436;6.972;2023-06-22T13:51:58;43.60;;;31.80;;
2011;SDS011;1009;51.436;6.972;2023-06-22T13:54:25;46.87;;;33.20;;
2011;SDS011;1009;51.436;6.972;2023-06-22T13:56:52;45.33;;;35.03;;
2011;SDS011;1009;51.436;6.972;2023-06-22T13:59:18;48.17;;;32.40;;
2011;SDS011;1009;51.436;6.972;2023-06-22T14:01:47;51.00;;;32.13;;
2011;SDS011;1009;51.436;6.972;2023-06-22T14:04:14;43.00;;;31.07;;
2011;SDS011;1009;51.436;6.972;2023-06-22T14:06:40;41.20;;;30.67;;
2011;SDS011;1009;51.436;6.972;2023-06-22T14:09:07;40.83;;;30.57;;
2011;SDS011;1009;51.436;6.972;2023-06-22T14:11:34;44.03;;;33.17;;
2011;SDS011;1009;51.436;6.972;2023-06-22T14:14:01;40.37;;;30.47;;
2011;SDS011;1009;51.436;6.972;2023-06-22T14:16:27;42.67;;;31.33;;
2011;SDS011;1009;51.436;6.972;2023-06-22T14:18:55;46.80;;;31.80;;
2011;SDS011;1009;51.436;6.972;2023-06-22T14:21:22;41.40;;;29.57;;
2011;SDS011;1009;51.436;6.972;2023-06-22T14:23:49;43.43;;;29.83;;
2011;SDS011;1009;51.436;6.972;2023-06-22T14:26:16;50.40;;;32.10;;
2011;SDS011;1009;51.436;6.972;2023-06-22T14:28:43;44.97;;;31.07;;
2011;SDS011;1009;51.436;6.972;2023-06-22T14:31:12;42.90;;;30.70;;
2011;SDS011;1009;51.436;6.972;2023-06-22T14:33:40;45.13;;;30.80;;
2011;SDS011;1009;51.436;6.972;2023-06-22T14:36:08;41.50;;;30.67;;
2011;SDS011;1009;51.436;6.972;2023-06-22T14:38:34;44.80;;;30.77;;
2011;SDS011;1009;51.436;6.972;2023-06-22T14:41:01;43.03;;;30.47;;
2011;SDS011;1009;51.436;6.972;2023-06-22T14:43:28;40.43;;;29.20;;
2011;SDS011;1009;51.436;6.972;2023-06-22T14:45:54;41.47;;;28.30;;
2011;SDS011;1009;51.436;6.972;2023-06-22T14:48:21;40.20;;;27.57;;
2011;SDS011;1009;51.436;6.972;2023-06-22T14:50:48;40.53;;;26.57;;
2011;SDS011;1009;51.436;6.972;2023-06-22T14:53:16;36.93;;;26.13;;
2011;SDS011;1009;51.436;6.972;2023-06-22T14:55:43;34.93;;;25.70;;
2011;SDS011;1009;51.436;6.972;2023-06-22T14:58:10;34.10;;;25.37;;